EDT,Max TemperatureF,Mean TemperatureF,Min TemperatureF,Max Dew PointF,MeanDew PointF,Min DewpointF,Max Humidity, Mean Humidity, Min Humidity, Max Sea Level PressureIn, Mean Sea Level PressureIn, Min Sea Level PressureIn, Max VisibilityMiles, Mean VisibilityMiles, Min VisibilityMiles, Max Wind SpeedMPH, Mean Wind SpeedMPH, Max Gust SpeedMPH,PrecipitationIn, CloudCover, Events, WindDirDegrees
2013-3-1,47,41,34,32,29,27,75,60,45,29.86,29.79,29.72,10,10,10,16,7,21,0.00,7,,290
2013-3-2,42,39,35,28,24,20,64,56,48,29.87,29.83,29.80,10,10,10,15,8,22,0.00,8,,300
2013-3-3,41,36,31,22,20,17,69,55,40,29.88,29.83,29.78,10,10,10,21,10,25,0.00,6,,300
2013-3-4,43,37,31,19,17,15,58,47,36,30.03,29.95,29.89,10,10,10,24,12,31,0.00,2,,300
2013-3-5,50,38,26,31,22,17,75,51,27,30.09,30.01,29.83,10,10,10,15,7,21,T,3,,40
2013-3-6,48,42,35,43,37,32,89,77,65,29.84,29.56,29.35,10,4,1,43,23,56,3.09,8,Rain-Snow-Thunderstorm,32
2013-3-7,49,44,38,32,29,25,70,58,45,30.09,30.00,29.85,10,10,10,25,15,32,0.01,6,,334
2013-3-8,46,41,36,28,25,21,59,52,45,30.20,30.11,30.06,10,10,9,29,16,40,T,6,,332
2013-3-9,62,47,32,31,24,20,75,48,20,30.32,30.26,30.21,10,10,10,15,8,22,0.00,0,,338
2013-3-10,59,43,27,37,32,22,86,60,33,30.35,30.32,30.29,10,9,0,12,4,18,0.00,2,Fog,103
2013-3-11,66,51,35,49,39,33,92,72,52,30.31,30.21,30.05,10,4,0,17,7,22,0.00,1,Fog,136
2013-3-12,64,54,44,58,52,36,87,75,63,30.04,29.84,29.74,10,7,2,21,14,39,0.70,7,Rain,207
2013-3-13,53,43,32,34,29,22,89,61,32,30.03,29.95,29.90,10,10,5,21,8,26,T,2,Rain,290
2013-3-14,47,41,34,19,16,13,51,39,26,30.10,30.06,30.00,10,10,10,24,12,36,0.00,1,,291
2013-3-15,53,41,28,33,22,17,75,51,26,30.11,29.98,29.82,10,10,10,16,8,23,0.00,0,,237
2013-3-16,59,48,36,42,36,31,85,64,43,29.89,29.78,29.66,10,10,10,16,6,20,0.00,4,,65
2013-3-17,42,40,37,36,32,27,85,70,55,30.28,30.12,29.89,10,8,4,12,5,15,0.01,8,Rain,25
2013-3-18,51,43,35,48,38,24,89,74,59,30.34,30.12,29.86,10,6,0,17,8,22,0.13,8,Fog-Rain-Snow,82
2013-3-19,59,48,36,46,39,33,89,66,43,29.90,29.80,29.74,10,9,2,16,7,22,0.06,5,Rain,266
2013-3-20,53,40,27,32,20,12,82,51,19,30.01,29.93,29.79,10,10,10,21,8,28,0.00,1,,224
2013-3-21,43,38,32,28,24,8,82,59,35,29.89,29.76,29.71,10,6,1,20,12,28,T,6,Snow,329
2013-3-22,47,38,29,21,16,9,75,52,28,30.01,29.93,29.88,10,10,10,20,8,28,0.00,1,,276
2013-3-23,54,40,26,26,22,19,75,52,28,30.03,29.98,29.92,10,10,10,21,6,28,0.00,0,,287
2013-3-24,45,36,27,32,25,21,89,65,40,30.01,29.81,29.66,10,8,1,17,5,22,0.08,4,Snow,71
2013-3-25,39,37,35,35,32,30,92,87,82,29.68,29.52,29.44,10,4,1,15,9,20,0.52,8,Rain-Snow,336
2013-3-26,51,43,34,34,31,24,89,64,39,29.96,29.82,29.70,10,7,1,15,7,21,0.00,5,,286
2013-3-27,54,46,38,31,28,24,70,51,32,30.09,30.02,29.96,10,10,10,25,9,33,T,3,,281
2013-3-28,51,44,37,30,28,26,70,55,39,30.19,30.11,30.08,10,10,10,22,10,29,T,5,,295
2013-3-29,56,45,33,33,28,24,82,57,32,30.24,30.20,30.14,10,10,10,18,6,30,0.00,3,,295
2013-3-30,61,46,31,38,30,22,85,54,22,30.23,30.19,30.14,10,10,8,12,3,31,0.00,2,,68
2013-3-31,61,48,35,52,44,30,89,66,42,30.17,29.92,29.77,10,7,2,22,7,30,0.25,5,Rain,145